sensor_id;sensor_type;location;lat;lon;timestamp;temperature;humidity
37460;DHT22;23318;50.966;5.284;2023-05-10T00:01:08;13.20;99.90
37460;DHT22;23318;50.966;5.284;2023-05-10T00:03:33;13.20;99.90
37460;DHT22;23318;50.966;5.284;2023-05-10T00:05:59;13.20;99.90
37460;DHT22;23318;50.966;5.284;2023-05-10T00:08:25;13.20;99.90
37460;DHT22;23318;50.966;5.284;2023-05-10T00:10:50;13.30;99.90
37460;DHT22;23318;50.966;5.284;2023-05-10T00:13:16;13.40;99.90
37460;DHT22;23318;50.966;5.284;2023-05-10T00:15:42;13.20;99.90
37460;DHT22;23318;50.966;5.284;2023-05-10T00:18:07;13.10;99.90
37460;DHT22;23318;50.966;5.284;2023-05-10T00:20:33;13.10;99.90
37460;DHT22;23318;50.966;5.284;2023-05-10T00:22:59;13.10;99.90
37460;DHT22;23318;50.966;5.284;2023-05-10T00:25:24;13.10;99.90
37460;DHT22;23318;50.966;5.284;2023-05-10T00:27:50;13.10;99.90
37460;DHT22;23318;50.966;5.284;2023-05-10T00:30:16;13.10;99.90
37460;DHT22;23318;50.966;5.284;2023-05-10T00:32:41;13.10;99.90
37460;DHT22;23318;50.966;5.284;2023-05-10T00:35:08;13.10;99.90
37460;DHT22;23318;50.966;5.284;2023-05-10T00:37:34;13.00;99.90
37460;DHT22;23318;50.966;5.284;2023-05-10T00:40:00;13.20;99.90
37460;DHT22;23318;50.966;5.284;2023-05-10T00:42:25;13.10;99.90
37460;DHT22;23318;50.966;5.284;2023-05-10T00:44:51;13.10;99.90
37460;DHT22;23318;50.966;5.284;2023-05-10T00:47:17;13.00;99.90
37460;DHT22;23318;50.966;5.284;2023-05-10T00:49:43;13.00;99.90
37460;DHT22;23318;50.966;5.284;2023-05-10T00:52:09;13.10;99.90
37460;DHT22;23318;50.966;5.284;2023-05-10T00:54:35;12.90;99.90
37460;DHT22;23318;50.966;5.284;2023-05-10T00:57:01;13.00;99.90
37460;DHT22;23318;50.966;5.284;2023-05-10T00:59:28;12.90;99.90
37460;DHT22;23318;50.966;5.284;2023-05-10T01:01:54;12.90;99.90
37460;DHT22;23318;50.966;5.284;2023-05-10T01:04:20;13.00;99.90
37460;DHT22;23318;50.966;5.284;2023-05-10T01:06:51;13.00;99.90
37460;DHT22;23318;50.966;5.284;2023-05-10T01:09:18;12.90;99.90
37460;DHT22;23318;50.966;5.284;2023-05-10T01:11:44;12.90;99.90
37460;DHT22;23318;50.966;5.284;2023-05-10T01:14:11;12.80;99.90
37460;DHT22;23318;50.966;5.284;2023-05-10T01:16:38;12.80;99.90
37460;DHT22;23318;50.966;5.284;2023-05-10T01:19:10;12.70;99.90
37460;DHT22;23318;50.966;5.284;2023-05-10T01:21:53;13.00;99.90
37460;DHT22;23318;50.966;5.284;2023-05-10T01:30:21;12.90;99.90
37460;DHT22;23318;50.966;5.284;2023-05-10T01:35:50;12.90;99.90
37460;DHT22;23318;50.966;5.284;2023-05-10T01:40:53;12.90;99.90
37460;DHT22;23318;50.966;5.284;2023-05-10T01:43:35;13.00;99.90
37460;DHT22;23318;50.966;5.284;2023-05-10T01:46:09;12.90;99.90
37460;DHT22;23318;50.966;5.284;2023-05-10T01:48:51;12.90;99.90
37460;DHT22;23318;50.966;5.284;2023-05-10T01:51:22;12.90;99.90
37460;DHT22;23318;50.966;5.284;2023-05-10T01:53:49;12.80;99.90
37460;DHT22;23318;50.966;5.284;2023-05-10T01:56:17;12.80;99.90
37460;DHT22;23318;50.966;5.284;2023-05-10T01:58:47;12.70;99.90
37460;DHT22;23318;50.966;5.284;2023-05-10T02:01:14;12.80;99.90
37460;DHT22;23318;50.966;5.284;2023-05-10T02:03:42;12.70;99.90
37460;DHT22;23318;50.966;5.284;2023-05-10T02:06:10;12.70;99.90
37460;DHT22;23318;50.966;5.284;2023-05-10T02:08:39;12.70;99.90
37460;DHT22;23318;50.966;5.284;2023-05-10T02:11:05;12.90;99.90
37460;DHT22;23318;50.966;5.284;2023-05-10T02:13:32;12.70;99.90
37460;DHT22;23318;50.966;5.284;2023-05-10T02:16:01;12.80;99.90
37460;DHT22;23318;50.966;5.284;2023-05-10T02:18:29;12.90;99.90
37460;DHT22;23318;50.966;5.284;2023-05-10T02:20:57;13.00;99.90
37460;DHT22;23318;50.966;5.284;2023-05-10T02:23:25;12.80;99.90
37460;DHT22;23318;50.966;5.284;2023-05-10T02:25:51;12.90;99.90
37460;DHT22;23318;50.966;5.284;2023-05-10T02:28:19;12.90;99.90
37460;DHT22;23318;50.966;5.284;2023-05-10T02:30:47;12.90;99.90
37460;DHT22;23318;50.966;5.284;2023-05-10T02:33:13;12.80;99.90
37460;DHT22;23318;50.966;5.284;2023-05-10T02:35:40;12.80;99.90
37460;DHT22;23318;50.966;5.284;2023-05-10T02:38:06;12.90;99.90
37460;DHT22;23318;50.966;5.284;2023-05-10T02:40:33;13.00;99.90
37460;DHT22;23318;50.966;5.284;2023-05-10T02:43:02;12.80;99.90
37460;DHT22;23318;50.966;5.284;2023-05-10T02:45:31;12.80;99.90
37460;DHT22;23318;50.966;5.284;2023-05-10T02:47:58;12.80;99.90
37460;DHT22;23318;50.966;5.284;2023-05-10T02:50:27;12.90;99.90
37460;DHT22;23318;50.966;5.284;2023-05-10T02:52:59;12.80;99.90
37460;DHT22;23318;50.966;5.284;2023-05-10T02:55:27;12.80;99.90
37460;DHT22;23318;50.966;5.284;2023-05-10T02:58:00;12.70;99.90
37460;DHT22;23318;50.966;5.284;2023-05-10T03:00:26;12.60;99.90
37460;DHT22;23318;50.966;5.284;2023-05-10T03:02:52;12.60;99.90
37460;DHT22;23318;50.966;5.284;2023-05-10T03:05:19;12.70;99.90
37460;DHT22;23318;50.966;5.284;2023-05-10T03:07:45;12.70;99.90
37460;DHT22;23318;50.966;5.284;2023-05-10T03:10:11;12.70;99.90
37460;DHT22;23318;50.966;5.284;2023-05-10T03:18:06;12.90;99.90
37460;DHT22;23318;50.966;5.284;2023-05-10T03:20:41;13.00;99.90
37460;DHT22;23318;50.966;5.284;2023-05-10T03:23:30;12.90;99.90
37460;DHT22;23318;50.966;5.284;2023-05-10T03:26:00;12.80;99.90
37460;DHT22;23318;50.966;5.284;2023-05-10T03:28:27;12.90;99.90
37460;DHT22;23318;50.966;5.284;2023-05-10T03:30:53;12.80;99.90
37460;DHT22;23318;50.966;5.284;2023-05-10T03:33:20;12.80;99.90
37460;DHT22;23318;50.966;5.284;2023-05-10T03:35:45;12.90;99.90
37460;DHT22;23318;50.966;5.284;2023-05-10T03:38:14;13.00;99.90
37460;DHT22;23318;50.966;5.284;2023-05-10T03:40:40;12.90;99.90
37460;DHT22;23318;50.966;5.284;2023-05-10T03:43:06;12.90;99.90
37460;DHT22;23318;50.966;5.284;2023-05-10T03:45:31;12.90;99.90
37460;DHT22;23318;50.966;5.284;2023-05-10T03:47:58;12.80;99.90
37460;DHT22;23318;50.966;5.284;2023-05-10T03:50:23;12.90;99.90
37460;DHT22;23318;50.966;5.284;2023-05-10T03:52:49;12.90;99.90
37460;DHT22;23318;50.966;5.284;2023-05-10T03:55:15;12.90;99.90
37460;DHT22;23318;50.966;5.284;2023-05-10T03:57:42;12.80;99.90
37460;DHT22;23318;50.966;5.284;2023-05-10T04:00:08;12.70;99.90
37460;DHT22;23318;50.966;5.284;2023-05-10T04:02:34;12.70;99.90
37460;DHT22;23318;50.966;5.284;2023-05-10T04:05:00;12.60;99.90
37460;DHT22;23318;50.966;5.284;2023-05-10T04:07:26;12.70;99.90
37460;DHT22;23318;50.966;5.284;2023-05-10T04:09:52;12.90;99.90
37460;DHT22;23318;50.966;5.284;2023-05-10T04:12:17;12.90;99.90
37460;DHT22;23318;50.966;5.284;2023-05-10T04:14:43;12.80;99.90
37460;DHT22;23318;50.966;5.284;2023-05-10T04:17:09;12.80;99.90
37460;DHT22;23318;50.966;5.284;2023-05-10T04:19:35;12.80;99.90
37460;DHT22;23318;50.966;5.284;2023-05-10T04:22:02;12.80;99.90
37460;DHT22;23318;50.966;5.284;2023-05-10T04:24:27;12.90;99.90
37460;DHT22;23318;50.966;5.284;2023-05-10T04:26:54;12.80;99.90
37460;DHT22;23318;50.966;5.284;2023-05-10T04:29:20;12.80;99.90
37460;DHT22;23318;50.966;5.284;2023-05-10T04:31:46;13.00;99.90
37460;DHT22;23318;50.966;5.284;2023-05-10T04:34:12;13.00;99.90
37460;DHT22;23318;50.966;5.284;2023-05-10T04:36:37;13.10;99.90
37460;DHT22;23318;50.966;5.284;2023-05-10T04:39:04;13.00;99.90
37460;DHT22;23318;50.966;5.284;2023-05-10T04:41:30;13.00;99.90
37460;DHT22;23318;50.966;5.284;2023-05-10T04:43:55;13.00;99.90
37460;DHT22;23318;50.966;5.284;2023-05-10T04:46:21;13.00;99.90
37460;DHT22;23318;50.966;5.284;2023-05-10T04:48:47;12.80;99.90
37460;DHT22;23318;50.966;5.284;2023-05-10T04:51:13;12.80;99.90
37460;DHT22;23318;50.966;5.284;2023-05-10T04:53:39;12.70;99.90
37460;DHT22;23318;50.966;5.284;2023-05-10T04:56:05;12.60;99.90
37460;DHT22;23318;50.966;5.284;2023-05-10T04:58:30;12.60;99.90
37460;DHT22;23318;50.966;5.284;2023-05-10T05:00:56;12.60;99.90
37460;DHT22;23318;50.966;5.284;2023-05-10T05:03:22;12.50;99.90
37460;DHT22;23318;50.966;5.284;2023-05-10T05:05:48;12.50;99.90
37460;DHT22;23318;50.966;5.284;2023-05-10T05:08:14;12.70;99.90
37460;DHT22;23318;50.966;5.284;2023-05-10T05:10:39;12.70;99.90
37460;DHT22;23318;50.966;5.284;2023-05-10T05:13:05;12.70;99.90
37460;DHT22;23318;50.966;5.284;2023-05-10T05:15:31;12.60;99.90
37460;DHT22;23318;50.966;5.284;2023-05-10T05:17:57;12.50;99.90
37460;DHT22;23318;50.966;5.284;2023-05-10T05:20:22;12.40;99.90
37460;DHT22;23318;50.966;5.284;2023-05-10T05:22:48;12.50;99.90
37460;DHT22;23318;50.966;5.284;2023-05-10T05:25:14;12.50;99.90
37460;DHT22;23318;50.966;5.284;2023-05-10T05:27:41;12.50;99.90
37460;DHT22;23318;50.966;5.284;2023-05-10T05:30:07;12.50;99.90
37460;DHT22;23318;50.966;5.284;2023-05-10T05:32:33;12.50;99.90
37460;DHT22;23318;50.966;5.284;2023-05-10T05:34:58;12.50;99.90
37460;DHT22;23318;50.966;5.284;2023-05-10T05:37:24;12.60;99.90
37460;DHT22;23318;50.966;5.284;2023-05-10T05:39:50;12.50;99.90
37460;DHT22;23318;50.966;5.284;2023-05-10T05:42:16;12.50;99.90
37460;DHT22;23318;50.966;5.284;2023-05-10T05:44:44;12.60;99.90
37460;DHT22;23318;50.966;5.284;2023-05-10T05:47:10;12.80;99.90
37460;DHT22;23318;50.966;5.284;2023-05-10T05:49:36;12.90;99.90
37460;DHT22;23318;50.966;5.284;2023-05-10T05:52:02;12.60;99.90
37460;DHT22;23318;50.966;5.284;2023-05-10T05:54:29;12.70;99.90
37460;DHT22;23318;50.966;5.284;2023-05-10T05:56:56;12.80;99.90
37460;DHT22;23318;50.966;5.284;2023-05-10T05:59:22;12.80;99.90
37460;DHT22;23318;50.966;5.284;2023-05-10T06:01:47;12.90;99.90
37460;DHT22;23318;50.966;5.284;2023-05-10T06:04:13;12.90;99.90
37460;DHT22;23318;50.966;5.284;2023-05-10T06:06:39;12.70;99.90
37460;DHT22;23318;50.966;5.284;2023-05-10T06:09:04;12.70;99.90
37460;DHT22;23318;50.966;5.284;2023-05-10T06:11:30;12.70;99.90
37460;DHT22;23318;50.966;5.284;2023-05-10T06:13:58;12.60;99.90
37460;DHT22;23318;50.966;5.284;2023-05-10T06:16:23;12.50;99.90
37460;DHT22;23318;50.966;5.284;2023-05-10T06:18:49;12.60;99.90
37460;DHT22;23318;50.966;5.284;2023-05-10T06:21:15;12.60;99.90
37460;DHT22;23318;50.966;5.284;2023-05-10T06:23:41;12.60;99.90
37460;DHT22;23318;50.966;5.284;2023-05-10T06:26:07;12.60;99.90
37460;DHT22;23318;50.966;5.284;2023-05-10T06:28:33;12.60;99.90
37460;DHT22;23318;50.966;5.284;2023-05-10T06:30:59;12.70;99.90
37460;DHT22;23318;50.966;5.284;2023-05-10T06:33:25;12.70;99.90
37460;DHT22;23318;50.966;5.284;2023-05-10T06:35:51;12.60;99.90
37460;DHT22;23318;50.966;5.284;2023-05-10T06:38:17;12.70;99.90
37460;DHT22;23318;50.966;5.284;2023-05-10T06:40:43;12.80;99.90
37460;DHT22;23318;50.966;5.284;2023-05-10T06:43:09;12.80;99.90
37460;DHT22;23318;50.966;5.284;2023-05-10T06:45:36;12.70;99.90
37460;DHT22;23318;50.966;5.284;2023-05-10T06:48:02;12.80;99.90
37460;DHT22;23318;50.966;5.284;2023-05-10T06:50:28;12.70;99.90
37460;DHT22;23318;50.966;5.284;2023-05-10T06:52:53;12.50;99.90
37460;DHT22;23318;50.966;5.284;2023-05-10T06:55:19;12.60;99.90
37460;DHT22;23318;50.966;5.284;2023-05-10T06:57:45;12.60;99.90
37460;DHT22;23318;50.966;5.284;2023-05-10T07:00:11;12.60;99.90
37460;DHT22;23318;50.966;5.284;2023-05-10T07:02:37;12.70;99.90
37460;DHT22;23318;50.966;5.284;2023-05-10T07:05:02;12.60;99.90
37460;DHT22;23318;50.966;5.284;2023-05-10T07:07:28;12.60;99.90
37460;DHT22;23318;50.966;5.284;2023-05-10T07:09:54;12.60;99.90
37460;DHT22;23318;50.966;5.284;2023-05-10T07:12:21;12.70;99.90
37460;DHT22;23318;50.966;5.284;2023-05-10T07:14:47;12.70;99.90
37460;DHT22;23318;50.966;5.284;2023-05-10T07:17:13;12.60;99.90
37460;DHT22;23318;50.966;5.284;2023-05-10T07:19:38;12.70;99.90
37460;DHT22;23318;50.966;5.284;2023-05-10T07:22:04;12.60;99.90
37460;DHT22;23318;50.966;5.284;2023-05-10T07:24:30;12.70;99.90
37460;DHT22;23318;50.966;5.284;2023-05-10T07:26:56;12.80;99.90
37460;DHT22;23318;50.966;5.284;2023-05-10T07:29:22;12.80;99.90
37460;DHT22;23318;50.966;5.284;2023-05-10T07:31:47;12.80;99.90
37460;DHT22;23318;50.966;5.284;2023-05-10T07:34:13;12.80;99.90
37460;DHT22;23318;50.966;5.284;2023-05-10T07:36:39;12.90;99.90
37460;DHT22;23318;50.966;5.284;2023-05-10T07:39:04;13.00;99.90
37460;DHT22;23318;50.966;5.284;2023-05-10T07:41:30;12.90;99.90
37460;DHT22;23318;50.966;5.284;2023-05-10T07:43:56;12.90;99.90
37460;DHT22;23318;50.966;5.284;2023-05-10T07:46:21;13.00;99.90
37460;DHT22;23318;50.966;5.284;2023-05-10T07:48:47;13.20;99.90
37460;DHT22;23318;50.966;5.284;2023-05-10T07:51:13;13.20;99.90
37460;DHT22;23318;50.966;5.284;2023-05-10T07:53:39;13.20;99.90
37460;DHT22;23318;50.966;5.284;2023-05-10T07:56:22;13.20;99.90
37460;DHT22;23318;50.966;5.284;2023-05-10T07:58:48;13.40;99.90
37460;DHT22;23318;50.966;5.284;2023-05-10T08:01:14;13.40;99.90
37460;DHT22;23318;50.966;5.284;2023-05-10T08:03:39;13.40;99.90
37460;DHT22;23318;50.966;5.284;2023-05-10T08:06:05;13.20;99.90
37460;DHT22;23318;50.966;5.284;2023-05-10T08:08:31;13.30;99.90
37460;DHT22;23318;50.966;5.284;2023-05-10T08:10:57;13.40;99.90
37460;DHT22;23318;50.966;5.284;2023-05-10T08:13:22;13.50;99.90
37460;DHT22;23318;50.966;5.284;2023-05-10T08:15:48;13.50;99.90
37460;DHT22;23318;50.966;5.284;2023-05-10T08:18:14;13.60;99.90
37460;DHT22;23318;50.966;5.284;2023-05-10T08:20:39;13.40;99.90
37460;DHT22;23318;50.966;5.284;2023-05-10T08:23:05;13.50;99.90
37460;DHT22;23318;50.966;5.284;2023-05-10T08:25:31;13.60;99.90
37460;DHT22;23318;50.966;5.284;2023-05-10T08:27:57;13.60;99.90
37460;DHT22;23318;50.966;5.284;2023-05-10T08:30:23;13.20;99.90
37460;DHT22;23318;50.966;5.284;2023-05-10T08:32:48;12.80;99.90
37460;DHT22;23318;50.966;5.284;2023-05-10T08:35:15;12.60;99.90
37460;DHT22;23318;50.966;5.284;2023-05-10T08:37:40;12.60;99.90
37460;DHT22;23318;50.966;5.284;2023-05-10T08:40:06;12.50;99.90
37460;DHT22;23318;50.966;5.284;2023-05-10T08:42:36;12.60;99.90
37460;DHT22;23318;50.966;5.284;2023-05-10T08:45:05;12.40;99.90
37460;DHT22;23318;50.966;5.284;2023-05-10T08:47:33;12.50;99.90
37460;DHT22;23318;50.966;5.284;2023-05-10T08:50:00;12.60;99.90
37460;DHT22;23318;50.966;5.284;2023-05-10T08:52:30;12.60;99.90
37460;DHT22;23318;50.966;5.284;2023-05-10T08:54:56;12.50;99.90
37460;DHT22;23318;50.966;5.284;2023-05-10T08:57:22;12.50;99.90
37460;DHT22;23318;50.966;5.284;2023-05-10T08:59:47;12.50;99.90
37460;DHT22;23318;50.966;5.284;2023-05-10T09:02:13;12.60;99.90
37460;DHT22;23318;50.966;5.284;2023-05-10T09:04:39;12.60;99.90
37460;DHT22;23318;50.966;5.284;2023-05-10T09:07:06;12.50;99.90
37460;DHT22;23318;50.966;5.284;2023-05-10T09:09:33;12.50;99.90
37460;DHT22;23318;50.966;5.284;2023-05-10T09:11:59;12.40;99.90
37460;DHT22;23318;50.966;5.284;2023-05-10T09:14:25;12.60;99.90
37460;DHT22;23318;50.966;5.284;2023-05-10T09:16:51;12.60;99.90
37460;DHT22;23318;50.966;5.284;2023-05-10T09:19:17;12.60;99.90
37460;DHT22;23318;50.966;5.284;2023-05-10T09:21:43;12.70;99.90
37460;DHT22;23318;50.966;5.284;2023-05-10T09:24:09;12.70;99.90
37460;DHT22;23318;50.966;5.284;2023-05-10T09:26:35;12.80;99.90
37460;DHT22;23318;50.966;5.284;2023-05-10T09:29:02;12.90;99.90
37460;DHT22;23318;50.966;5.284;2023-05-10T09:31:50;12.80;99.90
37460;DHT22;23318;50.966;5.284;2023-05-10T09:34:28;12.80;99.90
37460;DHT22;23318;50.966;5.284;2023-05-10T09:36:56;12.90;99.90
37460;DHT22;23318;50.966;5.284;2023-05-10T09:39:40;12.90;99.90
37460;DHT22;23318;50.966;5.284;2023-05-10T09:42:10;12.90;99.90
37460;DHT22;23318;50.966;5.284;2023-05-10T09:44:36;12.90;99.90
37460;DHT22;23318;50.966;5.284;2023-05-10T09:47:02;12.90;99.90
37460;DHT22;23318;50.966;5.284;2023-05-10T09:49:29;12.90;99.90
37460;DHT22;23318;50.966;5.284;2023-05-10T09:52:00;12.90;99.90
37460;DHT22;23318;50.966;5.284;2023-05-10T09:54:27;13.00;99.90
37460;DHT22;23318;50.966;5.284;2023-05-10T09:56:52;13.00;99.90
37460;DHT22;23318;50.966;5.284;2023-05-10T09:59:18;13.10;99.90
37460;DHT22;23318;50.966;5.284;2023-05-10T10:01:50;13.10;99.90
37460;DHT22;23318;50.966;5.284;2023-05-10T10:04:17;13.10;99.90
37460;DHT22;23318;50.966;5.284;2023-05-10T10:06:43;13.10;99.90
37460;DHT22;23318;50.966;5.284;2023-05-10T10:09:09;13.20;99.90
37460;DHT22;23318;50.966;5.284;2023-05-10T10:11:36;13.50;99.90
37460;DHT22;23318;50.966;5.284;2023-05-10T10:14:02;13.60;99.90
37460;DHT22;23318;50.966;5.284;2023-05-10T10:16:32;13.50;99.90
37460;DHT22;23318;50.966;5.284;2023-05-10T10:18:58;13.50;99.90
37460;DHT22;23318;50.966;5.284;2023-05-10T10:21:24;13.60;99.90
37460;DHT22;23318;50.966;5.284;2023-05-10T10:23:51;13.60;99.90
37460;DHT22;23318;50.966;5.284;2023-05-10T10:26:17;13.50;99.90
37460;DHT22;23318;50.966;5.284;2023-05-10T10:31:41;13.60;99.90
37460;DHT22;23318;50.966;5.284;2023-05-10T10:34:11;13.80;99.90
37460;DHT22;23318;50.966;5.284;2023-05-10T10:36:45;13.80;99.90
37460;DHT22;23318;50.966;5.284;2023-05-10T10:39:11;13.70;99.90
37460;DHT22;23318;50.966;5.284;2023-05-10T10:41:39;14.00;99.90
37460;DHT22;23318;50.966;5.284;2023-05-10T10:49:51;13.80;99.90
37460;DHT22;23318;50.966;5.284;2023-05-10T10:52:42;13.70;99.90
37460;DHT22;23318;50.966;5.284;2023-05-10T11:03:08;14.60;99.90
37460;DHT22;23318;50.966;5.284;2023-05-10T11:05:49;14.80;99.90
37460;DHT22;23318;50.966;5.284;2023-05-10T11:08:43;14.70;99.90
37460;DHT22;23318;50.966;5.284;2023-05-10T11:11:09;14.60;99.90
37460;DHT22;23318;50.966;5.284;2023-05-10T11:13:43;14.60;99.90
37460;DHT22;23318;50.966;5.284;2023-05-10T11:16:11;14.40;99.90
37460;DHT22;23318;50.966;5.284;2023-05-10T11:18:38;14.60;99.90
37460;DHT22;23318;50.966;5.284;2023-05-10T11:21:03;14.60;99.90
37460;DHT22;23318;50.966;5.284;2023-05-10T11:26:13;14.40;99.90
37460;DHT22;23318;50.966;5.284;2023-05-10T11:28:46;14.60;99.90
37460;DHT22;23318;50.966;5.284;2023-05-10T11:31:13;14.60;99.90
37460;DHT22;23318;50.966;5.284;2023-05-10T11:33:53;14.70;99.90
37460;DHT22;23318;50.966;5.284;2023-05-10T11:36:27;14.90;99.90
37460;DHT22;23318;50.966;5.284;2023-05-10T11:38:55;15.00;99.90
37460;DHT22;23318;50.966;5.284;2023-05-10T11:41:21;14.80;99.90
37460;DHT22;23318;50.966;5.284;2023-05-10T11:43:50;15.30;99.90
37460;DHT22;23318;50.966;5.284;2023-05-10T11:46:18;15.50;99.90
37460;DHT22;23318;50.966;5.284;2023-05-10T11:48:46;16.20;99.90
37460;DHT22;23318;50.966;5.284;2023-05-10T11:51:12;15.70;99.90
37460;DHT22;23318;50.966;5.284;2023-05-10T11:53:38;15.30;99.90
37460;DHT22;23318;50.966;5.284;2023-05-10T11:56:08;15.60;99.90
37460;DHT22;23318;50.966;5.284;2023-05-10T11:58:35;15.60;99.90
37460;DHT22;23318;50.966;5.284;2023-05-10T12:01:01;14.90;99.90
37460;DHT22;23318;50.966;5.284;2023-05-10T12:03:28;15.00;99.90
37460;DHT22;23318;50.966;5.284;2023-05-10T12:05:55;15.10;99.90
37460;DHT22;23318;50.966;5.284;2023-05-10T12:08:23;15.30;99.90
37460;DHT22;23318;50.966;5.284;2023-05-10T12:10:49;15.40;99.90
37460;DHT22;23318;50.966;5.284;2023-05-10T12:13:15;15.50;99.90
37460;DHT22;23318;50.966;5.284;2023-05-10T12:15:42;15.50;99.90
37460;DHT22;23318;50.966;5.284;2023-05-10T12:18:09;15.40;99.90
37460;DHT22;23318;50.966;5.284;2023-05-10T12:20:36;15.40;99.90
37460;DHT22;23318;50.966;5.284;2023-05-10T12:23:02;15.40;99.90
37460;DHT22;23318;50.966;5.284;2023-05-10T12:25:33;15.20;99.90
37460;DHT22;23318;50.966;5.284;2023-05-10T12:28:02;15.50;99.90
37460;DHT22;23318;50.966;5.284;2023-05-10T12:30:30;15.40;99.90
37460;DHT22;23318;50.966;5.284;2023-05-10T12:33:07;15.40;99.90
37460;DHT22;23318;50.966;5.284;2023-05-10T12:35:38;15.30;99.90
37460;DHT22;23318;50.966;5.284;2023-05-10T12:41:09;15.60;99.90
37460;DHT22;23318;50.966;5.284;2023-05-10T12:43:36;15.10;99.90
37460;DHT22;23318;50.966;5.284;2023-05-10T12:46:09;15.00;99.90
37460;DHT22;23318;50.966;5.284;2023-05-10T12:48:36;15.00;99.90
37460;DHT22;23318;50.966;5.284;2023-05-10T12:51:03;15.30;99.90
37460;DHT22;23318;50.966;5.284;2023-05-10T12:53:29;15.30;99.90
37460;DHT22;23318;50.966;5.284;2023-05-10T12:55:55;15.00;99.90
37460;DHT22;23318;50.966;5.284;2023-05-10T12:58:20;15.00;99.90
37460;DHT22;23318;50.966;5.284;2023-05-10T13:00:46;15.10;99.90
37460;DHT22;23318;50.966;5.284;2023-05-10T13:03:12;15.40;99.90
37460;DHT22;23318;50.966;5.284;2023-05-10T13:05:38;15.80;99.90
37460;DHT22;23318;50.966;5.284;2023-05-10T13:08:04;15.60;99.90
37460;DHT22;23318;50.966;5.284;2023-05-10T13:10:30;15.70;99.90
37460;DHT22;23318;50.966;5.284;2023-05-10T13:12:57;15.70;99.90
37460;DHT22;23318;50.966;5.284;2023-05-10T13:15:23;15.90;99.90
37460;DHT22;23318;50.966;5.284;2023-05-10T13:17:49;16.00;99.90
37460;DHT22;23318;50.966;5.284;2023-05-10T13:20:14;16.50;99.90
37460;DHT22;23318;50.966;5.284;2023-05-10T13:22:41;16.40;99.90
37460;DHT22;23318;50.966;5.284;2023-05-10T13:25:07;16.50;99.90
37460;DHT22;23318;50.966;5.284;2023-05-10T13:27:33;16.90;99.90
37460;DHT22;23318;50.966;5.284;2023-05-10T13:29:59;17.00;99.90
37460;DHT22;23318;50.966;5.284;2023-05-10T13:32:25;16.70;99.90
37460;DHT22;23318;50.966;5.284;2023-05-10T13:34:51;16.80;99.90
37460;DHT22;23318;50.966;5.284;2023-05-10T13:37:17;17.50;99.90
37460;DHT22;23318;50.966;5.284;2023-05-10T13:39:43;17.90;99.90
37460;DHT22;23318;50.966;5.284;2023-05-10T13:42:08;18.20;99.90
37460;DHT22;23318;50.966;5.284;2023-05-10T13:44:34;19.20;99.90
37460;DHT22;23318;50.966;5.284;2023-05-10T13:47:01;19.00;99.90
37460;DHT22;23318;50.966;5.284;2023-05-10T13:49:27;18.50;99.90
37460;DHT22;23318;50.966;5.284;2023-05-10T13:51:52;19.40;99.90
37460;DHT22;23318;50.966;5.284;2023-05-10T13:54:18;19.30;99.90
37460;DHT22;23318;50.966;5.284;2023-05-10T13:56:45;18.90;99.90
37460;DHT22;23318;50.966;5.284;2023-05-10T13:59:12;18.80;99.90
37460;DHT22;23318;50.966;5.284;2023-05-10T14:01:42;19.40;99.90
37460;DHT22;23318;50.966;5.284;2023-05-10T14:04:08;19.90;99.90
37460;DHT22;23318;50.966;5.284;2023-05-10T14:06:36;19.70;99.90
37460;DHT22;23318;50.966;5.284;2023-05-10T14:09:03;18.60;99.90
37460;DHT22;23318;50.966;5.284;2023-05-10T14:11:28;18.90;99.90
37460;DHT22;23318;50.966;5.284;2023-05-10T14:13:54;19.70;99.90
37460;DHT22;23318;50.966;5.284;2023-05-10T14:16:20;19.10;99.90
37460;DHT22;23318;50.966;5.284;2023-05-10T14:18:46;18.90;99.90
37460;DHT22;23318;50.966;5.284;2023-05-10T14:21:12;18.70;99.90
37460;DHT22;23318;50.966;5.284;2023-05-10T14:23:38;19.20;99.90
37460;DHT22;23318;50.966;5.284;2023-05-10T14:26:04;19.40;99.90
37460;DHT22;23318;50.966;5.284;2023-05-10T14:28:30;19.30;99.90
37460;DHT22;23318;50.966;5.284;2023-05-10T14:30:56;19.60;99.90
37460;DHT22;23318;50.966;5.284;2023-05-10T14:33:21;18.90;99.90
37460;DHT22;23318;50.966;5.284;2023-05-10T14:35:47;19.40;99.90
37460;DHT22;23318;50.966;5.284;2023-05-10T14:38:14;19.40;99.90
37460;DHT22;23318;50.966;5.284;2023-05-10T14:40:39;19.20;99.90
37460;DHT22;23318;50.966;5.284;2023-05-10T14:43:05;18.70;99.90
37460;DHT22;23318;50.966;5.284;2023-05-10T14:45:31;19.10;99.90
37460;DHT22;23318;50.966;5.284;2023-05-10T14:47:57;18.10;99.90
37460;DHT22;23318;50.966;5.284;2023-05-10T14:50:23;17.50;99.90
37460;DHT22;23318;50.966;5.284;2023-05-10T14:52:49;17.80;99.90
37460;DHT22;23318;50.966;5.284;2023-05-10T14:55:15;17.60;99.90
37460;DHT22;23318;50.966;5.284;2023-05-10T14:57:41;18.40;99.90
37460;DHT22;23318;50.966;5.284;2023-05-10T15:00:07;18.30;99.90
37460;DHT22;23318;50.966;5.284;2023-05-10T15:02:33;18.40;99.90
37460;DHT22;23318;50.966;5.284;2023-05-10T15:04:59;18.70;99.90
37460;DHT22;23318;50.966;5.284;2023-05-10T15:07:25;19.20;99.90
37460;DHT22;23318;50.966;5.284;2023-05-10T15:09:51;19.10;99.90
37460;DHT22;23318;50.966;5.284;2023-05-10T15:12:20;18.30;99.90
37460;DHT22;23318;50.966;5.284;2023-05-10T15:14:46;17.70;99.90
37460;DHT22;23318;50.966;5.284;2023-05-10T15:17:11;17.60;99.90
37460;DHT22;23318;50.966;5.284;2023-05-10T15:19:37;17.70;99.90
37460;DHT22;23318;50.966;5.284;2023-05-10T15:22:04;17.30;99.90
37460;DHT22;23318;50.966;5.284;2023-05-10T15:24:30;17.40;99.90
37460;DHT22;23318;50.966;5.284;2023-05-10T15:26:56;17.70;99.90
37460;DHT22;23318;50.966;5.284;2023-05-10T15:29:22;18.10;99.90
37460;DHT22;23318;50.966;5.284;2023-05-10T15:31:49;18.10;99.90
37460;DHT22;23318;50.966;5.284;2023-05-10T15:34:16;18.40;99.90
37460;DHT22;23318;50.966;5.284;2023-05-10T15:36:41;18.60;99.90
37460;DHT22;23318;50.966;5.284;2023-05-10T15:39:07;18.70;99.90
37460;DHT22;23318;50.966;5.284;2023-05-10T15:41:35;18.50;99.90
37460;DHT22;23318;50.966;5.284;2023-05-10T15:44:00;18.50;99.90
37460;DHT22;23318;50.966;5.284;2023-05-10T15:46:27;18.50;99.90
37460;DHT22;23318;50.966;5.284;2023-05-10T15:48:53;18.80;99.90
37460;DHT22;23318;50.966;5.284;2023-05-10T15:51:19;17.80;99.90
37460;DHT22;23318;50.966;5.284;2023-05-10T15:53:45;17.80;99.90
37460;DHT22;23318;50.966;5.284;2023-05-10T15:56:11;17.50;99.90
37460;DHT22;23318;50.966;5.284;2023-05-10T15:58:40;17.60;99.90
37460;DHT22;23318;50.966;5.284;2023-05-10T16:01:06;17.60;99.90
37460;DHT22;23318;50.966;5.284;2023-05-10T16:03:35;17.50;99.90
37460;DHT22;23318;50.966;5.284;2023-05-10T16:06:01;17.30;99.90
37460;DHT22;23318;50.966;5.284;2023-05-10T16:08:29;17.30;99.90